createdAt,value
2023-04-01T00:01:06.019Z,98412.16
2023-04-01T00:03:34.367Z,98402.88
2023-04-01T00:06:02.367Z,98398.66
2023-04-01T00:08:29.559Z,98404.22
2023-04-01T00:10:57.839Z,98405.22
2023-04-01T00:13:26.639Z,98396.97
2023-04-01T00:15:54.844Z,98395.59
2023-04-01T00:18:21.648Z,98410.09
2023-04-01T00:20:52.108Z,98413.28
2023-04-01T00:23:19.611Z,98397.84
2023-04-01T00:25:48.922Z,98395.19
2023-04-01T00:28:17.553Z,98404.66
2023-04-01T00:30:44.141Z,98393.25
2023-04-01T00:33:10.907Z,98404.78
2023-04-01T00:35:37.834Z,98402.00
2023-04-01T00:38:04.988Z,98405.91
2023-04-01T00:40:38.364Z,98402.44
2023-04-01T00:43:12.955Z,98414.97
2023-04-01T00:45:42.466Z,98412.88
2023-04-01T00:48:24.197Z,98407.22
2023-04-01T00:50:55.297Z,98409.97
2023-04-01T00:53:23.613Z,98404.44
2023-04-01T00:55:57.460Z,98407.09
2023-04-01T00:58:26.864Z,98408.91
2023-04-01T01:00:54.511Z,98407.09
2023-04-01T01:03:21.141Z,98411.53
2023-04-01T01:05:50.712Z,98406.09
2023-04-01T01:08:39.032Z,98409.44
2023-04-01T01:11:09.302Z,98397.91
2023-04-01T01:13:49.197Z,98405.22
2023-04-01T01:16:28.008Z,98413.84
2023-04-01T01:18:59.180Z,98413.72
2023-04-01T01:21:51.813Z,98410.41
2023-04-01T01:24:39.475Z,98395.06
2023-04-01T01:27:11.518Z,98400.06
2023-04-01T01:30:10.400Z,98406.78
2023-04-01T01:32:56.480Z,98409.00
2023-04-01T01:35:34.608Z,98397.16
2023-04-01T01:38:05.316Z,98396.22
2023-04-01T01:40:35.450Z,98408.72
2023-04-01T01:43:07.224Z,98407.09
2023-04-01T01:45:37.842Z,98401.78
2023-04-01T01:48:06.358Z,98401.94
2023-04-01T01:50:34.349Z,98400.53
2023-04-01T01:53:09.906Z,98405.25
2023-04-01T01:55:39.413Z,98400.09
2023-04-01T01:58:24.354Z,98406.50
2023-04-01T02:00:58.469Z,98413.88
2023-04-01T02:03:27.913Z,98407.78
2023-04-01T02:05:57.769Z,98390.78
2023-04-01T02:08:32.384Z,98408.16
2023-04-01T02:11:22.529Z,98393.31
2023-04-01T02:13:58.064Z,98385.38
2023-04-01T02:16:38.995Z,98402.06
2023-04-01T02:19:10.624Z,98402.19
2023-04-01T02:21:39.123Z,98404.97
2023-04-01T02:24:11.353Z,98413.06
2023-04-01T02:26:38.171Z,98410.13
2023-04-01T02:29:07.993Z,98413.59
2023-04-01T02:31:35.799Z,98401.78
2023-04-01T02:34:04.075Z,98394.94
2023-04-01T02:36:31.025Z,98395.38
2023-04-01T02:39:03.128Z,98407.47
2023-04-01T02:41:29.954Z,98405.81
2023-04-01T02:43:58.362Z,98418.63
2023-04-01T02:46:26.060Z,98411.09
2023-04-01T02:48:52.623Z,98424.19
2023-04-01T02:51:19.212Z,98421.13
2023-04-01T02:53:45.750Z,98425.31
2023-04-01T02:56:12.289Z,98428.91
2023-04-01T02:58:38.824Z,98425.03
2023-04-01T03:01:05.567Z,98420.44
2023-04-01T03:03:32.212Z,98431.44
2023-04-01T03:06:01.090Z,98433.38
2023-04-01T03:08:27.675Z,98416.81
2023-04-01T03:10:54.212Z,98430.72
2023-04-01T03:13:20.740Z,98431.44
2023-04-01T03:15:47.264Z,98432.69
2023-04-01T03:18:13.845Z,98431.56
2023-04-01T03:20:40.525Z,98430.03
2023-04-01T03:23:08.236Z,98434.19
2023-04-01T03:25:34.948Z,98441.72
2023-04-01T03:28:02.142Z,98436.44
2023-04-01T03:30:30.911Z,98435.88
2023-04-01T03:32:58.622Z,98436.75
2023-04-01T03:35:25.475Z,98443.13
2023-04-01T03:37:53.521Z,98446.31
2023-04-01T03:40:20.315Z,98442.97
2023-04-01T03:42:47.147Z,98449.94
2023-04-01T03:45:13.968Z,98447.97
2023-04-01T03:47:40.791Z,98447.16
2023-04-01T03:50:08.730Z,98453.13
2023-04-01T03:52:35.774Z,98450.06
2023-04-01T03:55:03.091Z,98458.41
2023-04-01T03:57:32.642Z,98447.84
2023-04-01T03:59:59.388Z,98452.31
2023-04-01T04:02:26.079Z,98457.03
2023-04-01T04:04:52.706Z,98465.78
2023-04-01T04:07:19.301Z,98462.31
2023-04-01T04:09:45.861Z,98463.00
2023-04-01T04:12:12.376Z,98448.09
2023-04-01T04:14:38.881Z,98446.84
2023-04-01T04:17:05.509Z,98466.19
2023-04-01T04:19:37.536Z,98467.59
2023-04-01T04:22:04.071Z,98465.34
2023-04-01T04:24:30.709Z,98474.09
2023-04-01T04:26:57.234Z,98472.59
2023-04-01T04:29:23.829Z,98473.03
2023-04-01T04:31:50.411Z,98485.13
2023-04-01T04:34:16.997Z,98482.47
2023-04-01T04:36:43.965Z,98471.47
2023-04-01T04:39:10.670Z,98477.31
2023-04-01T04:41:38.856Z,98485.81
2023-04-01T04:44:06.379Z,98483.16
2023-04-01T04:46:33.453Z,98483.00
2023-04-01T04:49:00.112Z,98481.47
2023-04-01T04:51:26.868Z,98485.22
2023-04-01T04:53:53.463Z,98482.03
2023-04-01T04:56:22.200Z,98491.91
2023-04-01T04:58:49.513Z,98490.22
2023-04-01T05:01:17.445Z,98494.13
2023-04-01T05:03:44.504Z,98497.34
2023-04-01T05:06:12.839Z,98496.38
2023-04-01T05:08:41.262Z,98498.59
2023-04-01T05:11:13.624Z,98495.38
2023-04-01T05:13:40.743Z,98499.56
2023-04-01T05:16:18.634Z,98504.84
2023-04-01T05:18:45.451Z,98501.78
2023-04-01T05:21:14.870Z,98505.53
2023-04-01T05:23:41.339Z,98515.28
2023-04-01T05:26:13.474Z,98514.03
2023-04-01T05:28:40.617Z,98519.19
2023-04-01T05:31:08.288Z,98511.09
2023-04-01T05:33:35.676Z,98506.78
2023-04-01T05:36:14.081Z,98528.22
2023-04-01T05:38:41.147Z,98520.84
2023-04-01T05:41:07.738Z,98522.22
2023-04-01T05:43:37.913Z,98525.56
2023-04-01T05:46:04.536Z,98538.78
2023-04-01T05:48:31.161Z,98530.72
2023-04-01T05:50:57.779Z,98523.19
2023-04-01T05:53:24.368Z,98525.69
2023-04-01T05:55:50.928Z,98528.06
2023-04-01T05:58:17.468Z,98522.63
2023-04-01T06:00:44.430Z,98530.16
2023-04-01T06:03:11.169Z,98530.13
2023-04-01T06:05:46.541Z,98530.72
2023-04-01T06:08:17.626Z,98522.78
2023-04-01T06:11:14.605Z,98531.00
2023-04-01T06:14:04.813Z,98526.69
2023-04-01T06:16:46.076Z,98534.59
2023-04-01T06:19:33.709Z,98530.25
2023-04-01T06:22:38.217Z,98531.25
2023-04-01T06:25:27.930Z,98525.09
2023-04-01T06:28:00.490Z,98537.75
2023-04-01T06:30:58.944Z,98536.88
2023-04-01T06:34:02.941Z,98537.63
2023-04-01T06:36:54.055Z,98532.91
2023-04-01T06:39:53.392Z,98535.81
2023-04-01T06:43:14.018Z,98542.16
2023-04-01T06:45:54.330Z,98530.88
2023-04-01T06:48:42.413Z,98538.06
2023-04-01T06:51:40.696Z,98538.97
2023-04-01T06:54:17.646Z,98539.09
2023-04-01T06:56:51.469Z,98538.06
2023-04-01T06:59:26.149Z,98549.00
2023-04-01T07:02:06.834Z,98540.53
2023-04-01T07:04:39.263Z,98553.25
2023-04-01T07:07:38.593Z,98531.69
2023-04-01T07:10:18.061Z,98540.47
2023-04-01T07:12:53.423Z,98551.19
2023-04-01T07:15:29.619Z,98561.97
2023-04-01T07:18:21.241Z,98558.03
2023-04-01T07:20:48.030Z,98555.53
2023-04-01T07:23:24.160Z,98566.91
2023-04-01T07:25:59.465Z,98553.22
2023-04-01T07:28:32.265Z,98562.31
2023-04-01T07:31:09.390Z,98564.88
2023-04-01T07:33:43.199Z,98569.50
2023-04-01T07:36:34.909Z,98551.25
2023-04-01T07:39:15.086Z,98569.63
2023-04-01T07:41:44.727Z,98570.31
2023-04-01T07:44:26.214Z,98566.22
2023-04-01T07:47:14.529Z,98583.78
2023-04-01T07:50:02.687Z,98570.06
2023-04-01T07:52:32.084Z,98576.50
2023-04-01T07:55:10.536Z,98568.06
2023-04-01T07:57:49.019Z,98573.88
2023-04-01T08:00:24.203Z,98579.31
2023-04-01T08:03:03.099Z,98577.56
2023-04-01T08:05:47.222Z,98588.03
2023-04-01T08:08:55.659Z,98595.84
2023-04-01T08:11:33.676Z,98588.41
2023-04-01T08:14:15.370Z,98591.22
2023-04-01T08:16:51.552Z,98604.56
2023-04-01T08:20:03.827Z,98592.44
2023-04-01T08:22:37.478Z,98602.31
2023-04-01T08:25:08.784Z,98571.53
2023-04-01T08:27:53.023Z,98600.31
2023-04-01T08:30:24.361Z,98608.78
2023-04-01T08:33:09.334Z,98603.25
2023-04-01T08:35:50.929Z,98593.72
2023-04-01T08:38:24.276Z,98594.13
2023-04-01T08:41:01.157Z,98602.56
2023-04-01T08:43:46.334Z,98603.66
2023-04-01T08:46:43.617Z,98601.69
2023-04-01T08:49:36.468Z,98611.22
2023-04-01T08:52:08.807Z,98620.84
2023-04-01T08:55:00.717Z,98590.59
2023-04-01T08:57:35.989Z,98606.00
2023-04-01T09:00:12.169Z,98606.50
2023-04-01T09:02:56.784Z,98599.03
2023-04-01T09:05:38.635Z,98632.25
2023-04-01T09:08:31.503Z,98613.09
2023-04-01T09:11:09.347Z,98600.53
2023-04-01T09:13:38.956Z,98614.16
2023-04-01T09:16:37.610Z,98604.97
2023-04-01T09:19:25.855Z,98611.47
2023-04-01T09:22:00.448Z,98628.25
2023-04-01T09:24:53.236Z,98605.91
2023-04-01T09:27:19.782Z,98621.41
2023-04-01T09:29:59.707Z,98616.19
2023-04-01T09:32:53.515Z,98624.25
2023-04-01T09:35:22.898Z,98619.66
2023-04-01T09:37:52.266Z,98613.88
2023-04-01T09:40:59.259Z,98622.81
2023-04-01T09:44:04.736Z,98628.88
2023-04-01T09:46:46.406Z,98616.66
2023-04-01T09:49:37.754Z,98620.09
2023-04-01T09:52:11.238Z,98627.97
2023-04-01T09:54:49.024Z,98633.41
2023-04-01T09:57:27.357Z,98636.16
2023-04-01T10:00:51.245Z,98631.09
2023-04-01T10:03:37.722Z,98646.34
2023-04-01T10:06:22.132Z,98627.63
2023-04-01T10:08:53.033Z,98639.28
2023-04-01T10:11:34.862Z,98648.78
2023-04-01T10:14:40.556Z,98635.78
2023-04-01T10:17:25.526Z,98635.25
2023-04-01T10:20:10.343Z,98636.63
2023-04-01T10:23:08.306Z,98646.34
2023-04-01T10:26:01.701Z,98638.69
2023-04-01T10:29:03.803Z,98642.09
2023-04-01T10:32:04.314Z,98638.78
2023-04-01T10:34:40.587Z,98641.25
2023-04-01T10:37:09.801Z,98630.41
2023-04-01T10:39:55.010Z,98626.25
2023-04-01T10:42:39.782Z,98634.81
2023-04-01T10:45:48.646Z,98647.88
2023-04-01T10:48:30.110Z,98638.16
2023-04-01T10:51:11.802Z,98637.16
2023-04-01T10:53:50.578Z,98639.75
2023-04-01T10:56:29.157Z,98636.28
2023-04-01T10:59:13.880Z,98643.16
2023-04-01T11:02:11.448Z,98644.53
2023-04-01T11:05:08.366Z,98637.53
2023-04-01T11:08:02.866Z,98643.16
2023-04-01T11:10:50.061Z,98630.91
2023-04-01T11:13:35.254Z,98631.44
2023-04-01T11:16:32.723Z,98637.09
2023-04-01T11:19:31.547Z,98636.34
2023-04-01T11:22:10.533Z,98636.88
2023-04-01T11:24:44.400Z,98628.69
2023-04-01T11:27:40.662Z,98645.16
2023-04-01T11:30:16.808Z,98635.38
2023-04-01T11:32:52.779Z,98640.00
2023-04-01T11:35:41.385Z,98647.38
2023-04-01T11:38:18.552Z,98647.81
2023-04-01T11:41:09.728Z,98656.94
2023-04-01T11:43:54.832Z,98648.19
2023-04-01T11:46:43.158Z,98662.47
2023-04-01T11:49:40.424Z,98656.50
2023-04-01T11:52:09.913Z,98652.53
2023-04-01T11:54:42.315Z,98644.72
2023-04-01T11:57:11.538Z,98643.34
2023-04-01T11:59:56.264Z,98643.22
2023-04-01T12:02:54.059Z,98634.41
2023-04-01T12:05:35.570Z,98640.34
2023-04-01T12:08:37.311Z,98640.19
2023-04-01T12:11:23.679Z,98643.22
2023-04-01T12:14:25.785Z,98653.31
2023-04-01T12:17:13.815Z,98650.50
2023-04-01T12:20:21.511Z,98655.00
2023-04-01T12:23:21.698Z,98645.91
2023-04-01T12:26:06.259Z,98655.53
2023-04-01T12:28:54.177Z,98652.16
2023-04-01T12:31:32.920Z,98647.56
2023-04-01T12:34:07.559Z,98645.78
2023-04-01T12:36:34.095Z,98647.25
2023-04-01T12:39:40.353Z,98654.44
2023-04-01T12:42:25.573Z,98641.84
2023-04-01T12:45:14.077Z,98646.34
2023-04-01T12:47:46.652Z,98650.50
2023-04-01T12:50:43.876Z,98647.59
2023-04-01T12:53:21.634Z,98651.69
2023-04-01T12:55:53.692Z,98654.47
2023-04-01T12:58:39.265Z,98649.59
2023-04-01T13:01:32.367Z,98653.75
2023-04-01T13:04:01.949Z,98655.34
2023-04-01T13:06:55.917Z,98664.25
2023-04-01T13:09:32.768Z,98656.13
2023-04-01T13:12:22.826Z,98649.94
2023-04-01T13:14:52.286Z,98655.22
2023-04-01T13:17:23.678Z,98650.22
2023-04-01T13:20:15.508Z,98635.25
2023-04-01T13:23:07.141Z,98673.78
2023-04-01T13:26:06.855Z,98671.75
2023-04-01T13:29:06.476Z,98672.50
2023-04-01T13:32:00.630Z,98679.16
2023-04-01T13:34:45.513Z,98674.31
2023-04-01T13:37:24.246Z,98679.59
2023-04-01T13:39:50.816Z,98677.16
2023-04-01T13:42:41.683Z,98669.25
2023-04-01T13:45:23.344Z,98670.16
2023-04-01T13:48:02.043Z,98666.19
2023-04-01T13:50:52.765Z,98675.72
2023-04-01T13:53:41.113Z,98671.50
2023-04-01T13:56:20.417Z,98667.53
2023-04-01T13:59:15.400Z,98665.09
2023-04-01T14:02:12.593Z,98673.34
2023-04-01T14:04:45.013Z,98675.75
2023-04-01T14:07:22.982Z,98670.28
2023-04-01T14:09:58.627Z,98670.25
2023-04-01T14:12:48.205Z,98673.44
2023-04-01T14:15:53.618Z,98660.16
2023-04-01T14:18:32.036Z,98679.31
2023-04-01T14:21:29.920Z,98673.94
2023-04-01T14:24:29.789Z,98681.69
2023-04-01T14:27:17.737Z,98686.97
2023-04-01T14:30:02.397Z,98688.31
2023-04-01T14:32:31.648Z,98692.03
2023-04-01T14:35:34.567Z,98689.28
2023-04-01T14:38:26.969Z,98698.28
2023-04-01T14:41:31.253Z,98702.28
2023-04-01T14:44:31.184Z,98693.94
2023-04-01T14:47:16.305Z,98710.63
2023-04-01T14:49:47.230Z,98720.94
2023-04-01T14:52:26.163Z,98719.22
2023-04-01T14:54:53.873Z,98720.59
2023-04-01T14:57:30.404Z,98712.81
2023-04-01T15:00:18.932Z,98715.63
2023-04-01T15:02:51.371Z,98723.06
2023-04-01T15:05:34.968Z,98724.66
2023-04-01T15:08:21.964Z,98724.44
2023-04-01T15:11:06.963Z,98745.00
2023-04-01T15:13:55.482Z,98726.03
2023-04-01T15:16:52.938Z,98729.53
2023-04-01T15:19:37.823Z,98731.78
2023-04-01T15:22:30.019Z,98734.09
2023-04-01T15:25:36.532Z,98739.78
2023-04-01T15:28:55.906Z,98737.66
2023-04-01T15:31:44.774Z,98733.72
2023-04-01T15:34:29.570Z,98737.66
2023-04-01T15:37:08.981Z,98758.38
2023-04-01T15:40:00.311Z,98752.66
2023-04-01T15:42:45.746Z,98746.75
2023-04-01T15:45:36.087Z,98754.03
2023-04-01T15:48:15.976Z,98758.97
2023-04-01T15:50:57.804Z,98766.78
2023-04-01T15:53:46.122Z,98772.66
2023-04-01T15:56:12.650Z,98774.41
2023-04-01T15:58:56.065Z,98776.06
2023-04-01T16:01:53.183Z,98768.09
2023-04-01T16:04:47.613Z,98769.22
2023-04-01T16:07:32.981Z,98771.63
2023-04-01T16:10:10.562Z,98774.53
2023-04-01T16:12:52.277Z,98772.34
2023-04-01T16:15:26.524Z,98780.00
2023-04-01T16:18:14.413Z,98777.72
2023-04-01T16:21:00.185Z,98782.78
2023-04-01T16:23:51.202Z,98787.03
2023-04-01T16:26:27.580Z,98785.44
2023-04-01T16:29:12.551Z,98782.19
2023-04-01T16:31:50.125Z,98786.81
2023-04-01T16:34:30.006Z,98792.03
2023-04-01T16:37:19.871Z,98799.44
2023-04-01T16:40:21.827Z,98807.13
2023-04-01T16:43:05.808Z,98812.22
2023-04-01T16:45:54.178Z,98816.97
2023-04-01T16:48:37.411Z,98816.03
2023-04-01T16:51:12.592Z,98821.16
2023-04-01T16:53:53.428Z,98826.81
2023-04-01T16:56:25.468Z,98834.09
2023-04-01T16:59:07.536Z,98838.47
2023-04-01T17:02:01.511Z,98853.38
2023-04-01T17:04:27.898Z,98846.97
2023-04-01T17:07:21.433Z,98844.53
2023-04-01T17:10:12.762Z,98853.44
2023-04-01T17:12:47.164Z,98863.50
2023-04-01T17:15:45.411Z,98861.53
2023-04-01T17:18:24.438Z,98863.50
2023-04-01T17:21:03.197Z,98862.72
2023-04-01T17:23:46.693Z,98867.13
2023-04-01T17:26:19.186Z,98871.72
2023-04-01T17:28:48.752Z,98878.44
2023-04-01T17:31:27.252Z,98869.78
2023-04-01T17:33:56.845Z,98875.34
2023-04-01T17:36:45.554Z,98889.63
2023-04-01T17:39:47.517Z,98880.28
2023-04-01T17:42:32.039Z,98892.03
2023-04-01T17:45:09.275Z,98890.22
2023-04-01T17:47:42.691Z,98894.50
2023-04-01T17:50:12.024Z,98895.69
2023-04-01T17:52:58.810Z,98895.00
2023-04-01T17:56:03.347Z,98893.31
2023-04-01T17:59:08.734Z,98910.78
2023-04-01T18:01:49.699Z,98908.16
2023-04-01T18:04:53.948Z,98903.84
2023-04-01T18:07:28.829Z,98908.53
2023-04-01T18:10:05.961Z,98910.19
2023-04-01T18:13:05.441Z,98912.78
2023-04-01T18:15:35.047Z,98924.13
2023-04-01T18:18:10.452Z,98919.53
2023-04-01T18:20:37.199Z,98915.44
2023-04-01T18:23:19.853Z,98917.88
2023-04-01T18:25:49.600Z,98924.84
2023-04-01T18:28:19.592Z,98927.31
2023-04-01T18:30:57.437Z,98929.97
2023-04-01T18:33:41.909Z,98941.31
2023-04-01T18:36:20.719Z,98932.81
2023-04-01T18:38:55.413Z,98949.81
2023-04-01T18:41:35.635Z,98939.41
2023-04-01T18:44:13.612Z,98941.00
2023-04-01T18:47:16.929Z,98949.72
2023-04-01T18:50:02.934Z,98946.16
2023-04-01T18:52:40.805Z,98954.69
2023-04-01T18:55:08.687Z,98950.84
2023-04-01T18:57:57.759Z,98961.69
2023-04-01T19:00:45.927Z,98967.75
2023-04-01T19:03:32.557Z,98970.28
2023-04-01T19:06:09.273Z,98966.50
2023-04-01T19:08:40.330Z,98972.31
2023-04-01T19:11:25.480Z,98971.53
2023-04-01T19:14:15.130Z,98974.16
2023-04-01T19:17:16.663Z,98977.06
2023-04-01T19:19:56.596Z,98981.16
2023-04-01T19:22:42.181Z,98979.16
2023-04-01T19:25:11.715Z,98983.59
2023-04-01T19:27:51.316Z,98981.47
2023-04-01T19:30:33.097Z,98984.91
2023-04-01T19:33:19.509Z,98988.91
2023-04-01T19:36:07.341Z,98992.13
2023-04-01T19:38:41.417Z,98996.44
2023-04-01T19:41:27.102Z,99001.22
2023-04-01T19:44:31.364Z,99010.97
2023-04-01T19:47:35.499Z,99015.16
2023-04-01T19:50:11.564Z,99013.72
2023-04-01T19:52:41.781Z,99022.31
2023-04-01T19:55:20.104Z,99023.59
2023-04-01T19:58:07.829Z,99024.44
2023-04-01T20:00:38.503Z,99026.19
2023-04-01T20:03:35.477Z,99029.06
2023-04-01T20:06:20.472Z,99041.00
2023-04-01T20:09:20.433Z,99044.53
2023-04-01T20:12:02.805Z,99051.25
2023-04-01T20:14:52.752Z,99058.13
2023-04-01T20:17:44.440Z,99053.06
2023-04-01T20:20:11.025Z,99059.19
2023-04-01T20:22:46.571Z,99067.06
2023-04-01T20:25:16.804Z,99068.03
2023-04-01T20:27:53.981Z,99068.81
2023-04-01T20:30:38.488Z,99074.31
2023-04-01T20:33:10.877Z,99071.03
2023-04-01T20:36:00.976Z,99075.47
2023-04-01T20:38:39.765Z,99076.09
2023-04-01T20:41:24.110Z,99085.34
2023-04-01T20:44:19.803Z,99080.44
2023-04-01T20:46:54.490Z,99078.78
2023-04-01T20:49:41.493Z,99091.28
2023-04-01T20:52:13.751Z,99090.94
2023-04-01T20:54:45.384Z,99100.53
2023-04-01T20:57:33.851Z,99093.03
2023-04-01T21:00:34.190Z,99100.88
2023-04-01T21:03:12.989Z,99105.81
2023-04-01T21:06:04.970Z,99106.66
2023-04-01T21:08:49.070Z,99111.38
2023-04-01T21:11:39.715Z,99108.56
2023-04-01T21:14:27.743Z,99122.69
2023-04-01T21:17:09.658Z,99122.13
2023-04-01T21:20:10.550Z,99117.56
2023-04-01T21:22:43.166Z,99119.66
2023-04-01T21:25:29.864Z,99120.94
2023-04-01T21:28:23.732Z,99132.81
2023-04-01T21:31:05.665Z,99135.41
2023-04-01T21:33:51.349Z,99135.41
2023-04-01T21:36:42.268Z,99140.84
2023-04-01T21:39:23.911Z,99141.06
2023-04-01T21:42:08.702Z,99144.94
2023-04-01T21:44:44.970Z,99153.56
2023-04-01T21:47:44.756Z,99149.75
2023-04-01T21:50:20.910Z,99149.69
2023-04-01T21:53:05.828Z,99157.97
2023-04-01T21:56:10.321Z,99164.09
2023-04-01T21:58:39.810Z,99158.69
2023-04-01T22:01:25.948Z,99162.53
2023-04-01T22:04:04.795Z,99168.91
2023-04-01T22:06:54.926Z,99166.75
2023-04-01T22:09:36.587Z,99165.78
2023-04-01T22:12:06.669Z,99177.91
2023-04-01T22:14:57.714Z,99178.91
2023-04-01T22:17:39.723Z,99171.44
2023-04-01T22:20:20.501Z,99191.63
2023-04-01T22:23:13.707Z,99178.53
2023-04-01T22:26:01.712Z,99181.19
2023-04-01T22:28:49.900Z,99193.41
2023-04-01T22:31:24.518Z,99185.47
2023-04-01T22:34:23.457Z,99198.03
2023-04-01T22:36:58.657Z,99195.03
2023-04-01T22:39:52.413Z,99208.84
2023-04-01T22:42:45.568Z,99202.41
2023-04-01T22:45:12.870Z,99215.56
2023-04-01T22:48:03.543Z,99219.78
2023-04-01T22:50:50.385Z,99211.50
2023-04-01T22:53:33.572Z,99222.16
2023-04-01T22:56:05.475Z,99230.41
2023-04-01T22:58:38.878Z,99235.97
2023-04-01T23:01:22.669Z,99229.34
2023-04-01T23:03:52.542Z,99239.06
2023-04-01T23:06:28.831Z,99242.00
2023-04-01T23:09:15.632Z,99245.31
2023-04-01T23:11:48.552Z,99242.84
2023-04-01T23:14:30.244Z,99262.44
2023-04-01T23:17:10.738Z,99259.28
2023-04-01T23:19:49.404Z,99264.66
2023-04-01T23:22:34.942Z,99268.69
2023-04-01T23:25:53.152Z,99275.41
2023-04-01T23:28:43.114Z,99277.72
2023-04-01T23:31:31.659Z,99280.72
2023-04-01T23:34:04.711Z,99287.16
2023-04-01T23:36:37.232Z,99291.72
2023-04-01T23:39:16.647Z,99294.19
2023-04-01T23:41:43.318Z,99302.94
2023-04-01T23:44:13.159Z,99302.81
2023-04-01T23:46:41.753Z,99306.63
2023-04-01T23:49:19.878Z,99312.78
2023-04-01T23:52:00.242Z,99310.06
2023-04-01T23:54:39.699Z,99319.31
2023-04-01T23:57:14.413Z,99323.09
2023-04-01T23:59:41.344Z,99329.34
